Disclaimer

Please do not use the information listed here in-flight or in-navigation, as they are not provided to us by the airports but are provided by volunteers, so they might be outdated.

Search


Regions


Airport information page

Radio informations:
Tower (TWR) - 118.0 MHz
Approach (APP) - 119.0 MHz

Airport informations:
Latitude: 00° 03' 02.39" N
Longitude: 051° 04' 19.84" W
Elevation: 56 feet - 17 meters
Operating hours: 24 hour operations
Operating agency: Civil government, landing fees and diplomatic clearance may be required
Timezone: UTC-3(-2DT)
Fuel: Jet A1, without icing nhibitor.

100/130 octane gasoline, leaded, MIL-L-5572F (GREEN)

Runway information:
08/26 - 6890 x 148 feet< - >2100 x 45 meters

Recent METARs:
SBMQ 201500Z 09010KT 9999 SCT020 34/24 Q1011
SBMQ 201500Z 09010KT 9999 SCT020 34/24 Q1011
SBMQ 201600Z 04012KT 9999 SCT023 FEW027TCU SCT070 35/22 Q1010

Airport on the map: